METAR Data
IDs: Format: Raw Decoded Include TAF

Data at: 1338 UTC 10 Aug 2022

KALM 101335Z AUTO 26006KT 10SM CLR 23/12 A3024 RMK AO2